Aviation Digital Data Service (ADDS)

Output produced by METARs form (1557 UTC 23 September 2020)
found at http://aviationweather.gov/metar/data/
 
KBTR 231553Z 12011KT 10SM OVC007 24/23 A2987 RMK AO2 RAE37 SLP115 P0004 T02440233
KBTR 231123Z 2312/2412 10009KT P6SM VCSH BKN015 
     FM231800 12011KT 5SM SHRA BR VCTS BKN020CB 
     FM240300 13010KT P6SM VCSH BKN010 
     FM240600 16009KT P6SM BKN008